Tupelo Regional Airport
KTUP : now visible

Airfield :











YOU CAN JOIN US ON...

 
LOGIN :

Register | Disclaimer

   EN    FR    IT 

 









Legend :    VFR   Marginal VFR   IFR   Intensive IFR   Very Intensive IFR
Visi :
Ceiling :
>= 8 km
>= 3000ft
5 to 8 km
1000 to 3000 ft
1500m to 5 km
500 to 1000 ft
800 to 1500m
200 to 500 ft
< 800m
< 200 ft
Symbols :   Thunderstorms  Fog  Heavy snow  Heavy precipitations  Wind > 20 kt






- Airport Elevation : 346 ft
- IATA code : TUP


KTUP - Tupelo Regional

CURRENT METAR :
  • 062053Z AUTO 01004KT 10SM OVC008 13/11 A3010 RMK AO2 CIG 005V012 SLP193 T01280106 53013 $

EXPIRED METARs :
  • 062002Z 00000KT 10SM BKN006 OVC012 13/11 A3009 RMK AO2 CIG 004V008 T01280106 $
  • 061934Z 00000KT 10SM OVC004 13/11 A3008 RMK AO2 T01280106 $
  • 061853Z 00000KT 9SM OVC004 12/11 A3008 RMK AO2 SLP183 T01220106 $

TAF KTUP
Valid from the 06 at 18:00 until the 07 at 18:00 UTC


061738Z 0618/0718 12004KT P6SM FEW005 OVC015
TEMPO 0618/0621 3SM BR OVC005
FM062200 03006KT P6SM BKN018 OVC060
FM070200 03008KT P6SM OVC012
FM070600 03007KT 5SM BR OVC008
FM071600 05006KT P6SM BKN015



MET'MAP, your aeronautical weather chart ! - Copyright ORBIFLY December 2007 - Disclaimer

ORBIFLY MET'MAP TEAM :

Programming & Development : Alexandra Zaïnal
Concept & original design : Baudouin d'Aumeries
Assistance for programming : Marc-Olivier Méhu
Technical & hardware support : Manuel Goepfert

Contact : metmap@orbifly.com




SOURCES & CREDITS :

   NOAA       Earth
Advisory